Terminal Aerodrome Forecast
Issued by NWS

Home | Current Version | Previous Version | Text Only | Print | Product List | Glossary On
Versions: 1 2 3 4 5 6 7 8 9 10 11 12
000
FTUS44 KLZK 252300
TAFPBF
TAF
KPBF 252336Z 2600/2624 23003KT P6SM SKC
     FM260800 00000KT 4SM BR SKC
      TEMPO 2610/2613 1SM BR BKN005
     FM261400 21008KT P6SM SKC=

USA.gov is the U.S. government's official web portal to all federal, state and local government web resources and services.